sensor_id;sensor_type;location;lat;lon;timestamp;P1;durP1;ratioP1;P2;durP2;ratioP2
23304;SDS011;11821;51.456;8.844;2022-12-07T00:03:36;26.20;;;15.20;;
23304;SDS011;11821;51.456;8.844;2022-12-07T00:06:03;27.67;;;17.38;;
23304;SDS011;11821;51.456;8.844;2022-12-07T00:08:30;24.67;;;16.60;;
23304;SDS011;11821;51.456;8.844;2022-12-07T00:11:04;26.25;;;15.75;;
23304;SDS011;11821;51.456;8.844;2022-12-07T00:13:31;22.42;;;16.30;;
23304;SDS011;11821;51.456;8.844;2022-12-07T00:16:08;22.63;;;14.10;;
23304;SDS011;11821;51.456;8.844;2022-12-07T00:18:36;24.98;;;15.20;;
23304;SDS011;11821;51.456;8.844;2022-12-07T00:21:03;19.60;;;13.88;;
23304;SDS011;11821;51.456;8.844;2022-12-07T00:23:30;24.77;;;14.98;;
23304;SDS011;11821;51.456;8.844;2022-12-07T00:26:02;24.92;;;13.88;;
23304;SDS011;11821;51.456;8.844;2022-12-07T00:28:29;23.38;;;14.30;;
23304;SDS011;11821;51.456;8.844;2022-12-07T00:31:03;21.33;;;13.85;;
23304;SDS011;11821;51.456;8.844;2022-12-07T00:33:30;22.15;;;13.30;;
23304;SDS011;11821;51.456;8.844;2022-12-07T00:35:57;21.80;;;13.25;;
23304;SDS011;11821;51.456;8.844;2022-12-07T00:38:24;24.23;;;14.90;;
23304;SDS011;11821;51.456;8.844;2022-12-07T00:40:57;21.90;;;13.85;;
23304;SDS011;11821;51.456;8.844;2022-12-07T00:43:24;19.88;;;14.10;;
23304;SDS011;11821;51.456;8.844;2022-12-07T00:45:51;24.35;;;15.13;;
23304;SDS011;11821;51.456;8.844;2022-12-07T00:48:18;27.88;;;15.43;;
23304;SDS011;11821;51.456;8.844;2022-12-07T00:50:45;20.42;;;14.13;;
23304;SDS011;11821;51.456;8.844;2022-12-07T00:53:12;19.88;;;14.52;;
23304;SDS011;11821;51.456;8.844;2022-12-07T00:55:39;29.60;;;16.65;;
23304;SDS011;11821;51.456;8.844;2022-12-07T00:58:05;21.42;;;14.63;;
23304;SDS011;11821;51.456;8.844;2022-12-07T01:00:32;24.13;;;15.23;;
23304;SDS011;11821;51.456;8.844;2022-12-07T01:03:00;20.73;;;14.82;;
23304;SDS011;11821;51.456;8.844;2022-12-07T01:05:26;22.27;;;15.75;;
23304;SDS011;11821;51.456;8.844;2022-12-07T01:07:53;17.70;;;14.10;;
23304;SDS011;11821;51.456;8.844;2022-12-07T01:10:19;22.20;;;15.02;;
23304;SDS011;11821;51.456;8.844;2022-12-07T01:12:46;19.30;;;13.98;;
23304;SDS011;11821;51.456;8.844;2022-12-07T01:15:13;21.83;;;15.07;;
23304;SDS011;11821;51.456;8.844;2022-12-07T01:17:39;22.23;;;15.82;;
23304;SDS011;11821;51.456;8.844;2022-12-07T01:20:06;23.75;;;16.10;;
23304;SDS011;11821;51.456;8.844;2022-12-07T01:22:40;23.77;;;14.77;;
23304;SDS011;11821;51.456;8.844;2022-12-07T01:25:07;20.60;;;15.38;;
23304;SDS011;11821;51.456;8.844;2022-12-07T01:27:34;21.10;;;14.98;;
23304;SDS011;11821;51.456;8.844;2022-12-07T01:30:01;28.15;;;17.30;;
23304;SDS011;11821;51.456;8.844;2022-12-07T01:32:28;19.15;;;14.40;;
23304;SDS011;11821;51.456;8.844;2022-12-07T01:34:55;21.98;;;14.90;;
23304;SDS011;11821;51.456;8.844;2022-12-07T01:37:21;33.30;;;17.55;;
23304;SDS011;11821;51.456;8.844;2022-12-07T01:39:48;31.13;;;18.52;;
23304;SDS011;11821;51.456;8.844;2022-12-07T01:42:15;26.27;;;17.35;;
23304;SDS011;11821;51.456;8.844;2022-12-07T01:47:27;23.35;;;16.02;;
23304;SDS011;11821;51.456;8.844;2022-12-07T01:49:54;35.75;;;20.85;;
23304;SDS011;11821;51.456;8.844;2022-12-07T01:52:25;33.70;;;20.88;;
23304;SDS011;11821;51.456;8.844;2022-12-07T01:55:00;34.03;;;20.88;;
23304;SDS011;11821;51.456;8.844;2022-12-07T01:57:27;36.83;;;21.15;;
23304;SDS011;11821;51.456;8.844;2022-12-07T01:59:54;35.83;;;22.08;;
23304;SDS011;11821;51.456;8.844;2022-12-07T02:02:29;34.10;;;22.00;;
23304;SDS011;11821;51.456;8.844;2022-12-07T02:04:57;26.65;;;17.52;;
23304;SDS011;11821;51.456;8.844;2022-12-07T02:07:25;33.95;;;20.60;;
23304;SDS011;11821;51.456;8.844;2022-12-07T02:09:53;30.75;;;20.20;;
23304;SDS011;11821;51.456;8.844;2022-12-07T02:12:19;32.17;;;20.77;;
23304;SDS011;11821;51.456;8.844;2022-12-07T02:14:47;33.15;;;20.20;;
23304;SDS011;11821;51.456;8.844;2022-12-07T02:32:16;29.45;;;20.25;;
23304;SDS011;11821;51.456;8.844;2022-12-07T02:34:51;30.88;;;20.73;;
23304;SDS011;11821;51.456;8.844;2022-12-07T02:37:27;32.70;;;20.42;;
23304;SDS011;11821;51.456;8.844;2022-12-07T02:40:07;27.48;;;19.10;;
23304;SDS011;11821;51.456;8.844;2022-12-07T02:42:36;22.40;;;17.23;;
23304;SDS011;11821;51.456;8.844;2022-12-07T02:45:04;21.17;;;16.55;;
23304;SDS011;11821;51.456;8.844;2022-12-07T02:47:31;30.10;;;19.10;;
23304;SDS011;11821;51.456;8.844;2022-12-07T02:49:59;23.27;;;17.08;;
23304;SDS011;11821;51.456;8.844;2022-12-07T02:52:26;21.50;;;16.17;;
23304;SDS011;11821;51.456;8.844;2022-12-07T02:54:55;24.58;;;18.15;;
23304;SDS011;11821;51.456;8.844;2022-12-07T02:57:43;23.00;;;17.08;;
23304;SDS011;11821;51.456;8.844;2022-12-07T03:00:13;15.60;;;13.10;;
23304;SDS011;11821;51.456;8.844;2022-12-07T03:03:02;25.48;;;17.55;;
23304;SDS011;11821;51.456;8.844;2022-12-07T03:16:26;24.73;;;17.90;;
23304;SDS011;11821;51.456;8.844;2022-12-07T03:19:03;22.55;;;15.95;;
23304;SDS011;11821;51.456;8.844;2022-12-07T03:21:49;14.82;;;13.20;;
23304;SDS011;11821;51.456;8.844;2022-12-07T03:24:37;19.30;;;15.48;;
23304;SDS011;11821;51.456;8.844;2022-12-07T03:27:09;16.23;;;14.10;;
23304;SDS011;11821;51.456;8.844;2022-12-07T03:29:51;19.77;;;14.75;;
23304;SDS011;11821;51.456;8.844;2022-12-07T03:32:26;14.05;;;11.32;;
23304;SDS011;11821;51.456;8.844;2022-12-07T03:37:47;18.60;;;14.07;;
23304;SDS011;11821;51.456;8.844;2022-12-07T03:42:51;20.65;;;14.73;;
23304;SDS011;11821;51.456;8.844;2022-12-07T03:45:19;19.92;;;13.60;;
23304;SDS011;11821;51.456;8.844;2022-12-07T03:47:52;18.38;;;13.80;;
23304;SDS011;11821;51.456;8.844;2022-12-07T03:52:52;11.73;;;10.32;;
23304;SDS011;11821;51.456;8.844;2022-12-07T03:57:49;17.17;;;13.30;;
23304;SDS011;11821;51.456;8.844;2022-12-07T04:00:18;13.90;;;11.13;;
23304;SDS011;11821;51.456;8.844;2022-12-07T04:02:45;22.08;;;13.07;;
23304;SDS011;11821;51.456;8.844;2022-12-07T04:05:12;21.60;;;12.75;;
23304;SDS011;11821;51.456;8.844;2022-12-07T04:07:39;18.15;;;13.02;;
23304;SDS011;11821;51.456;8.844;2022-12-07T04:10:06;18.05;;;11.60;;
23304;SDS011;11821;51.456;8.844;2022-12-07T04:12:41;15.63;;;12.63;;
23304;SDS011;11821;51.456;8.844;2022-12-07T04:15:18;20.13;;;13.43;;
23304;SDS011;11821;51.456;8.844;2022-12-07T04:17:48;17.92;;;11.23;;
23304;SDS011;11821;51.456;8.844;2022-12-07T04:20:15;21.05;;;12.73;;
23304;SDS011;11821;51.456;8.844;2022-12-07T04:22:41;18.27;;;11.50;;
23304;SDS011;11821;51.456;8.844;2022-12-07T04:25:08;34.50;;;20.40;;
23304;SDS011;11821;51.456;8.844;2022-12-07T04:27:35;22.77;;;12.63;;
23304;SDS011;11821;51.456;8.844;2022-12-07T04:30:04;18.08;;;12.60;;
23304;SDS011;11821;51.456;8.844;2022-12-07T04:32:31;21.85;;;11.35;;
23304;SDS011;11821;51.456;8.844;2022-12-07T04:34:58;18.85;;;12.32;;
23304;SDS011;11821;51.456;8.844;2022-12-07T04:37:24;18.77;;;12.07;;
23304;SDS011;11821;51.456;8.844;2022-12-07T04:39:51;17.85;;;11.75;;
23304;SDS011;11821;51.456;8.844;2022-12-07T04:42:17;14.23;;;11.20;;
23304;SDS011;11821;51.456;8.844;2022-12-07T04:44:47;21.42;;;11.63;;
23304;SDS011;11821;51.456;8.844;2022-12-07T04:47:52;16.88;;;12.23;;
23304;SDS011;11821;51.456;8.844;2022-12-07T04:50:18;25.17;;;12.50;;
23304;SDS011;11821;51.456;8.844;2022-12-07T04:52:45;17.63;;;11.77;;
23304;SDS011;11821;51.456;8.844;2022-12-07T04:55:11;21.23;;;11.80;;
23304;SDS011;11821;51.456;8.844;2022-12-07T04:57:38;12.68;;;9.77;;
23304;SDS011;11821;51.456;8.844;2022-12-07T05:00:04;22.00;;;10.82;;
23304;SDS011;11821;51.456;8.844;2022-12-07T05:02:31;13.85;;;9.95;;
23304;SDS011;11821;51.456;8.844;2022-12-07T05:04:58;13.35;;;10.35;;
23304;SDS011;11821;51.456;8.844;2022-12-07T05:07:24;16.63;;;9.02;;
23304;SDS011;11821;51.456;8.844;2022-12-07T05:09:51;19.23;;;10.65;;
23304;SDS011;11821;51.456;8.844;2022-12-07T05:12:17;17.40;;;10.18;;
23304;SDS011;11821;51.456;8.844;2022-12-07T05:14:44;18.05;;;9.73;;
23304;SDS011;11821;51.456;8.844;2022-12-07T05:17:11;15.98;;;9.95;;
23304;SDS011;11821;51.456;8.844;2022-12-07T05:19:37;16.00;;;9.48;;
23304;SDS011;11821;51.456;8.844;2022-12-07T05:22:04;15.65;;;9.88;;
23304;SDS011;11821;51.456;8.844;2022-12-07T05:24:30;18.05;;;10.25;;
23304;SDS011;11821;51.456;8.844;2022-12-07T05:27:00;20.10;;;10.13;;
23304;SDS011;11821;51.456;8.844;2022-12-07T05:29:43;23.00;;;10.40;;
23304;SDS011;11821;51.456;8.844;2022-12-07T05:32:10;14.25;;;9.43;;
23304;SDS011;11821;51.456;8.844;2022-12-07T05:34:37;14.43;;;9.13;;
23304;SDS011;11821;51.456;8.844;2022-12-07T05:37:03;18.38;;;10.05;;
23304;SDS011;11821;51.456;8.844;2022-12-07T05:39:30;18.92;;;9.73;;
23304;SDS011;11821;51.456;8.844;2022-12-07T05:41:58;15.77;;;9.98;;
23304;SDS011;11821;51.456;8.844;2022-12-07T05:44:37;15.55;;;8.95;;
23304;SDS011;11821;51.456;8.844;2022-12-07T05:47:04;12.50;;;8.00;;
23304;SDS011;11821;51.456;8.844;2022-12-07T05:49:31;18.35;;;8.88;;
23304;SDS011;11821;51.456;8.844;2022-12-07T05:51:57;15.95;;;8.52;;
23304;SDS011;11821;51.456;8.844;2022-12-07T05:54:24;12.05;;;7.10;;
23304;SDS011;11821;51.456;8.844;2022-12-07T05:56:51;14.40;;;7.07;;
23304;SDS011;11821;51.456;8.844;2022-12-07T05:59:17;13.63;;;7.90;;
23304;SDS011;11821;51.456;8.844;2022-12-07T06:04:17;12.85;;;8.80;;
23304;SDS011;11821;51.456;8.844;2022-12-07T06:06:45;12.77;;;8.07;;
23304;SDS011;11821;51.456;8.844;2022-12-07T06:09:12;15.55;;;7.93;;
23304;SDS011;11821;51.456;8.844;2022-12-07T06:11:39;11.82;;;7.55;;
23304;SDS011;11821;51.456;8.844;2022-12-07T06:14:49;13.57;;;8.27;;
23304;SDS011;11821;51.456;8.844;2022-12-07T06:17:16;14.20;;;8.05;;
23304;SDS011;11821;51.456;8.844;2022-12-07T06:19:55;13.95;;;9.05;;
23304;SDS011;11821;51.456;8.844;2022-12-07T06:22:21;15.82;;;8.30;;
23304;SDS011;11821;51.456;8.844;2022-12-07T06:24:48;13.30;;;8.43;;
23304;SDS011;11821;51.456;8.844;2022-12-07T06:27:14;14.85;;;8.55;;
23304;SDS011;11821;51.456;8.844;2022-12-07T06:29:41;14.63;;;7.88;;
23304;SDS011;11821;51.456;8.844;2022-12-07T06:32:16;9.20;;;6.63;;
23304;SDS011;11821;51.456;8.844;2022-12-07T06:34:51;12.95;;;8.82;;
23304;SDS011;11821;51.456;8.844;2022-12-07T06:37:18;13.18;;;8.68;;
23304;SDS011;11821;51.456;8.844;2022-12-07T06:39:44;13.52;;;7.82;;
23304;SDS011;11821;51.456;8.844;2022-12-07T06:42:11;15.55;;;8.65;;
23304;SDS011;11821;51.456;8.844;2022-12-07T06:44:38;13.20;;;8.98;;
23304;SDS011;11821;51.456;8.844;2022-12-07T06:47:04;10.95;;;9.63;;
23304;SDS011;11821;51.456;8.844;2022-12-07T06:49:31;15.10;;;10.18;;
23304;SDS011;11821;51.456;8.844;2022-12-07T06:51:57;14.10;;;9.60;;
23304;SDS011;11821;51.456;8.844;2022-12-07T06:54:24;14.98;;;9.88;;
23304;SDS011;11821;51.456;8.844;2022-12-07T06:56:50;15.15;;;10.35;;
23304;SDS011;11821;51.456;8.844;2022-12-07T06:59:17;14.52;;;9.35;;
23304;SDS011;11821;51.456;8.844;2022-12-07T07:01:44;17.25;;;9.90;;
23304;SDS011;11821;51.456;8.844;2022-12-07T07:04:10;12.75;;;9.02;;
23304;SDS011;11821;51.456;8.844;2022-12-07T07:06:37;14.00;;;10.13;;
23304;SDS011;11821;51.456;8.844;2022-12-07T07:09:03;14.45;;;9.57;;
23304;SDS011;11821;51.456;8.844;2022-12-07T07:11:30;23.70;;;11.38;;
23304;SDS011;11821;51.456;8.844;2022-12-07T07:13:56;21.80;;;11.20;;
23304;SDS011;11821;51.456;8.844;2022-12-07T07:16:28;26.75;;;14.93;;
23304;SDS011;11821;51.456;8.844;2022-12-07T07:18:55;21.35;;;12.82;;
23304;SDS011;11821;51.456;8.844;2022-12-07T07:21:22;15.95;;;9.23;;
23304;SDS011;11821;51.456;8.844;2022-12-07T07:23:49;10.98;;;8.70;;
23304;SDS011;11821;51.456;8.844;2022-12-07T07:26:15;21.30;;;10.82;;
23304;SDS011;11821;51.456;8.844;2022-12-07T07:28:42;19.58;;;10.93;;
23304;SDS011;11821;51.456;8.844;2022-12-07T07:31:08;15.93;;;11.27;;
23304;SDS011;11821;51.456;8.844;2022-12-07T07:33:35;15.70;;;8.73;;
23304;SDS011;11821;51.456;8.844;2022-12-07T07:36:02;13.75;;;9.10;;
23304;SDS011;11821;51.456;8.844;2022-12-07T07:38:29;17.55;;;8.18;;
23304;SDS011;11821;51.456;8.844;2022-12-07T07:40:56;19.73;;;10.43;;
23304;SDS011;11821;51.456;8.844;2022-12-07T07:43:22;17.13;;;8.40;;
23304;SDS011;11821;51.456;8.844;2022-12-07T07:45:49;11.38;;;7.40;;
23304;SDS011;11821;51.456;8.844;2022-12-07T07:48:16;10.73;;;6.70;;
23304;SDS011;11821;51.456;8.844;2022-12-07T07:50:42;11.90;;;6.80;;
23304;SDS011;11821;51.456;8.844;2022-12-07T07:53:09;16.60;;;7.60;;
23304;SDS011;11821;51.456;8.844;2022-12-07T07:55:35;10.77;;;7.50;;
23304;SDS011;11821;51.456;8.844;2022-12-07T07:58:02;14.63;;;7.97;;
23304;SDS011;11821;51.456;8.844;2022-12-07T08:00:29;11.85;;;7.80;;
23304;SDS011;11821;51.456;8.844;2022-12-07T08:02:55;12.27;;;9.48;;
23304;SDS011;11821;51.456;8.844;2022-12-07T08:05:22;10.43;;;6.88;;
23304;SDS011;11821;51.456;8.844;2022-12-07T08:07:48;11.00;;;6.78;;
23304;SDS011;11821;51.456;8.844;2022-12-07T08:10:15;10.82;;;6.28;;
23304;SDS011;11821;51.456;8.844;2022-12-07T08:12:48;10.32;;;5.32;;
23304;SDS011;11821;51.456;8.844;2022-12-07T08:15:36;13.45;;;6.45;;
23304;SDS011;11821;51.456;8.844;2022-12-07T08:18:17;10.30;;;6.35;;
23304;SDS011;11821;51.456;8.844;2022-12-07T08:20:58;14.38;;;6.32;;
23304;SDS011;11821;51.456;8.844;2022-12-07T08:23:40;8.77;;;5.00;;
23304;SDS011;11821;51.456;8.844;2022-12-07T08:26:10;10.15;;;5.50;;
23304;SDS011;11821;51.456;8.844;2022-12-07T08:28:37;11.73;;;5.55;;
23304;SDS011;11821;51.456;8.844;2022-12-07T08:31:13;8.23;;;5.63;;
23304;SDS011;11821;51.456;8.844;2022-12-07T08:33:53;7.68;;;4.65;;
23304;SDS011;11821;51.456;8.844;2022-12-07T08:36:21;12.68;;;6.35;;
23304;SDS011;11821;51.456;8.844;2022-12-07T08:38:52;6.82;;;5.28;;
23304;SDS011;11821;51.456;8.844;2022-12-07T08:41:21;10.75;;;5.60;;
23304;SDS011;11821;51.456;8.844;2022-12-07T08:43:54;9.18;;;5.07;;
23304;SDS011;11821;51.456;8.844;2022-12-07T08:46:33;7.10;;;4.88;;
23304;SDS011;11821;51.456;8.844;2022-12-07T08:49:10;9.20;;;4.57;;
23304;SDS011;11821;51.456;8.844;2022-12-07T08:51:46;13.98;;;5.93;;
23304;SDS011;11821;51.456;8.844;2022-12-07T08:54:25;9.20;;;5.72;;
23304;SDS011;11821;51.456;8.844;2022-12-07T08:57:04;14.98;;;5.38;;
23304;SDS011;11821;51.456;8.844;2022-12-07T08:59:48;12.05;;;5.82;;
23304;SDS011;11821;51.456;8.844;2022-12-07T09:02:32;8.07;;;4.85;;
23304;SDS011;11821;51.456;8.844;2022-12-07T09:05:14;10.65;;;5.20;;
23304;SDS011;11821;51.456;8.844;2022-12-07T09:07:43;10.00;;;5.38;;
23304;SDS011;11821;51.456;8.844;2022-12-07T09:10:10;7.95;;;4.68;;
23304;SDS011;11821;51.456;8.844;2022-12-07T09:12:37;14.52;;;5.38;;
23304;SDS011;11821;51.456;8.844;2022-12-07T09:15:03;10.98;;;4.43;;
23304;SDS011;11821;51.456;8.844;2022-12-07T09:17:31;7.32;;;4.80;;
23304;SDS011;11821;51.456;8.844;2022-12-07T09:19:59;13.25;;;4.50;;
23304;SDS011;11821;51.456;8.844;2022-12-07T09:22:29;5.80;;;3.97;;
23304;SDS011;11821;51.456;8.844;2022-12-07T09:24:59;6.90;;;3.85;;
23304;SDS011;11821;51.456;8.844;2022-12-07T09:27:26;7.65;;;3.97;;
23304;SDS011;11821;51.456;8.844;2022-12-07T09:29:53;8.77;;;4.75;;
23304;SDS011;11821;51.456;8.844;2022-12-07T09:32:19;9.27;;;4.30;;
23304;SDS011;11821;51.456;8.844;2022-12-07T09:34:46;8.63;;;4.50;;
23304;SDS011;11821;51.456;8.844;2022-12-07T09:37:12;11.68;;;4.60;;
23304;SDS011;11821;51.456;8.844;2022-12-07T09:39:39;8.60;;;4.57;;
23304;SDS011;11821;51.456;8.844;2022-12-07T09:42:06;12.13;;;5.07;;
23304;SDS011;11821;51.456;8.844;2022-12-07T09:44:33;10.40;;;5.15;;
23304;SDS011;11821;51.456;8.844;2022-12-07T09:47:01;10.75;;;4.45;;
23304;SDS011;11821;51.456;8.844;2022-12-07T09:49:28;7.57;;;5.18;;
23304;SDS011;11821;51.456;8.844;2022-12-07T09:52:16;10.93;;;4.93;;
23304;SDS011;11821;51.456;8.844;2022-12-07T09:54:45;9.90;;;4.30;;
23304;SDS011;11821;51.456;8.844;2022-12-07T09:57:12;8.55;;;4.55;;
23304;SDS011;11821;51.456;8.844;2022-12-07T09:59:38;11.18;;;4.95;;
23304;SDS011;11821;51.456;8.844;2022-12-07T10:02:33;6.88;;;4.65;;
23304;SDS011;11821;51.456;8.844;2022-12-07T10:04:57;8.18;;;4.88;;
23304;SDS011;11821;51.456;8.844;2022-12-07T10:07:24;11.45;;;5.30;;
23304;SDS011;11821;51.456;8.844;2022-12-07T10:09:51;10.73;;;6.13;;
23304;SDS011;11821;51.456;8.844;2022-12-07T10:12:17;12.95;;;5.85;;
23304;SDS011;11821;51.456;8.844;2022-12-07T10:14:59;10.15;;;5.75;;
23304;SDS011;11821;51.456;8.844;2022-12-07T10:17:29;7.63;;;4.53;;
23304;SDS011;11821;51.456;8.844;2022-12-07T10:20:08;9.02;;;4.53;;
23304;SDS011;11821;51.456;8.844;2022-12-07T10:22:35;5.60;;;3.55;;
23304;SDS011;11821;51.456;8.844;2022-12-07T10:25:07;11.10;;;5.70;;
23304;SDS011;11821;51.456;8.844;2022-12-07T10:27:34;7.78;;;5.40;;
23304;SDS011;11821;51.456;8.844;2022-12-07T10:30:01;7.95;;;4.47;;
23304;SDS011;11821;51.456;8.844;2022-12-07T10:35:20;12.30;;;3.80;;
23304;SDS011;11821;51.456;8.844;2022-12-07T10:37:47;10.40;;;4.10;;
23304;SDS011;11821;51.456;8.844;2022-12-07T10:40:25;7.45;;;3.50;;
23304;SDS011;11821;51.456;8.844;2022-12-07T10:45:41;6.05;;;3.00;;
23304;SDS011;11821;51.456;8.844;2022-12-07T10:48:19;8.20;;;3.25;;
23304;SDS011;11821;51.456;8.844;2022-12-07T10:53:20;6.72;;;3.17;;
23304;SDS011;11821;51.456;8.844;2022-12-07T10:56:36;6.00;;;2.90;;
23304;SDS011;11821;51.456;8.844;2022-12-07T11:17:10;8.75;;;3.25;;
23304;SDS011;11821;51.456;8.844;2022-12-07T11:19:49;7.35;;;2.85;;
23304;SDS011;11821;51.456;8.844;2022-12-07T11:30:46;6.10;;;2.53;;
23304;SDS011;11821;51.456;8.844;2022-12-07T11:33:19;9.52;;;3.17;;
23304;SDS011;11821;51.456;8.844;2022-12-07T11:38:21;7.85;;;3.28;;
23304;SDS011;11821;51.456;8.844;2022-12-07T11:40:49;4.95;;;2.50;;
23304;SDS011;11821;51.456;8.844;2022-12-07T11:43:21;9.48;;;2.97;;
23304;SDS011;11821;51.456;8.844;2022-12-07T11:46:03;10.68;;;3.70;;
23304;SDS011;11821;51.456;8.844;2022-12-07T11:48:36;7.85;;;4.00;;
23304;SDS011;11821;51.456;8.844;2022-12-07T11:51:04;6.75;;;2.90;;
23304;SDS011;11821;51.456;8.844;2022-12-07T12:01:18;6.13;;;2.20;;
23304;SDS011;11821;51.456;8.844;2022-12-07T12:03:50;6.63;;;2.80;;
23304;SDS011;11821;51.456;8.844;2022-12-07T12:06:18;6.32;;;2.78;;
23304;SDS011;11821;51.456;8.844;2022-12-07T12:08:46;3.60;;;2.38;;
23304;SDS011;11821;51.456;8.844;2022-12-07T12:11:19;6.68;;;3.20;;
23304;SDS011;11821;51.456;8.844;2022-12-07T12:21:27;11.73;;;4.72;;
23304;SDS011;11821;51.456;8.844;2022-12-07T12:23:56;8.67;;;3.63;;
23304;SDS011;11821;51.456;8.844;2022-12-07T12:26:25;9.52;;;3.50;;
23304;SDS011;11821;51.456;8.844;2022-12-07T12:28:58;9.50;;;3.63;;
23304;SDS011;11821;51.456;8.844;2022-12-07T12:33:54;8.45;;;4.60;;
23304;SDS011;11821;51.456;8.844;2022-12-07T12:38:52;5.38;;;3.58;;
23304;SDS011;11821;51.456;8.844;2022-12-07T12:46:53;4.38;;;3.03;;
23304;SDS011;11821;51.456;8.844;2022-12-07T12:57:00;9.05;;;3.67;;
23304;SDS011;11821;51.456;8.844;2022-12-07T12:59:31;5.72;;;3.13;;
23304;SDS011;11821;51.456;8.844;2022-12-07T13:04:38;7.20;;;3.47;;
23304;SDS011;11821;51.456;8.844;2022-12-07T13:07:09;13.05;;;4.72;;
23304;SDS011;11821;51.456;8.844;2022-12-07T13:09:36;8.25;;;3.88;;
23304;SDS011;11821;51.456;8.844;2022-12-07T13:12:12;7.55;;;3.80;;
23304;SDS011;11821;51.456;8.844;2022-12-07T13:14:53;8.23;;;3.97;;
23304;SDS011;11821;51.456;8.844;2022-12-07T13:20:05;9.13;;;3.70;;
23304;SDS011;11821;51.456;8.844;2022-12-07T13:25:18;11.05;;;4.88;;
23304;SDS011;11821;51.456;8.844;2022-12-07T13:28:00;10.10;;;5.07;;
23304;SDS011;11821;51.456;8.844;2022-12-07T13:30:27;7.20;;;4.63;;
23304;SDS011;11821;51.456;8.844;2022-12-07T13:32:56;5.13;;;3.95;;
23304;SDS011;11821;51.456;8.844;2022-12-07T13:35:41;8.80;;;4.90;;
23304;SDS011;11821;51.456;8.844;2022-12-07T13:38:25;10.45;;;4.90;;
23304;SDS011;11821;51.456;8.844;2022-12-07T13:41:02;7.65;;;5.20;;
23304;SDS011;11821;51.456;8.844;2022-12-07T13:43:29;8.75;;;5.85;;
23304;SDS011;11821;51.456;8.844;2022-12-07T13:45:57;8.18;;;5.38;;
23304;SDS011;11821;51.456;8.844;2022-12-07T13:48:31;11.57;;;6.03;;
23304;SDS011;11821;51.456;8.844;2022-12-07T13:50:59;12.55;;;6.20;;
23304;SDS011;11821;51.456;8.844;2022-12-07T13:53:27;9.05;;;6.43;;
23304;SDS011;11821;51.456;8.844;2022-12-07T13:55:59;9.98;;;5.45;;
23304;SDS011;11821;51.456;8.844;2022-12-07T13:58:27;15.70;;;6.20;;
23304;SDS011;11821;51.456;8.844;2022-12-07T14:00:56;9.05;;;5.45;;
23304;SDS011;11821;51.456;8.844;2022-12-07T14:03:33;10.43;;;5.93;;
23304;SDS011;11821;51.456;8.844;2022-12-07T14:06:13;9.25;;;5.25;;
23304;SDS011;11821;51.456;8.844;2022-12-07T14:08:41;9.45;;;6.10;;
23304;SDS011;11821;51.456;8.844;2022-12-07T14:11:09;8.57;;;6.32;;
23304;SDS011;11821;51.456;8.844;2022-12-07T14:13:39;11.88;;;5.93;;
23304;SDS011;11821;51.456;8.844;2022-12-07T14:18:42;8.75;;;5.00;;
23304;SDS011;11821;51.456;8.844;2022-12-07T14:23:35;11.75;;;6.15;;
23304;SDS011;11821;51.456;8.844;2022-12-07T14:26:20;11.85;;;5.97;;
23304;SDS011;11821;51.456;8.844;2022-12-07T14:28:47;9.73;;;5.22;;
23304;SDS011;11821;51.456;8.844;2022-12-07T14:31:15;8.02;;;5.18;;
23304;SDS011;11821;51.456;8.844;2022-12-07T14:33:42;9.93;;;6.05;;
23304;SDS011;11821;51.456;8.844;2022-12-07T14:36:10;7.35;;;4.93;;
23304;SDS011;11821;51.456;8.844;2022-12-07T14:38:37;8.07;;;4.97;;
23304;SDS011;11821;51.456;8.844;2022-12-07T14:41:04;12.30;;;5.18;;
23304;SDS011;11821;51.456;8.844;2022-12-07T14:43:50;11.05;;;4.68;;
23304;SDS011;11821;51.456;8.844;2022-12-07T14:46:17;7.20;;;4.80;;
23304;SDS011;11821;51.456;8.844;2022-12-07T14:48:43;12.20;;;4.85;;
23304;SDS011;11821;51.456;8.844;2022-12-07T14:51:10;8.88;;;4.60;;
23304;SDS011;11821;51.456;8.844;2022-12-07T14:53:40;6.05;;;4.43;;
23304;SDS011;11821;51.456;8.844;2022-12-07T14:56:07;12.75;;;5.22;;
23304;SDS011;11821;51.456;8.844;2022-12-07T14:58:34;13.07;;;4.63;;
23304;SDS011;11821;51.456;8.844;2022-12-07T15:01:00;11.02;;;4.53;;
23304;SDS011;11821;51.456;8.844;2022-12-07T15:03:27;10.30;;;4.60;;
23304;SDS011;11821;51.456;8.844;2022-12-07T15:05:56;8.30;;;4.80;;
23304;SDS011;11821;51.456;8.844;2022-12-07T15:08:22;6.63;;;4.10;;
23304;SDS011;11821;51.456;8.844;2022-12-07T15:10:49;9.52;;;4.90;;
23304;SDS011;11821;51.456;8.844;2022-12-07T15:13:15;11.57;;;5.30;;
23304;SDS011;11821;51.456;8.844;2022-12-07T15:16:00;12.30;;;5.03;;
23304;SDS011;11821;51.456;8.844;2022-12-07T15:18:27;12.82;;;5.75;;
23304;SDS011;11821;51.456;8.844;2022-12-07T15:20:53;11.07;;;4.38;;
23304;SDS011;11821;51.456;8.844;2022-12-07T15:23:21;11.90;;;5.38;;
23304;SDS011;11821;51.456;8.844;2022-12-07T15:25:47;9.88;;;6.20;;
23304;SDS011;11821;51.456;8.844;2022-12-07T15:28:15;12.40;;;6.05;;
23304;SDS011;11821;51.456;8.844;2022-12-07T15:30:42;6.00;;;5.18;;
23304;SDS011;11821;51.456;8.844;2022-12-07T15:33:09;10.00;;;5.93;;
23304;SDS011;11821;51.456;8.844;2022-12-07T15:35:43;12.85;;;5.35;;
23304;SDS011;11821;51.456;8.844;2022-12-07T15:38:10;7.13;;;4.88;;
23304;SDS011;11821;51.456;8.844;2022-12-07T15:40:39;9.65;;;4.82;;
23304;SDS011;11821;51.456;8.844;2022-12-07T15:43:09;9.98;;;5.20;;
23304;SDS011;11821;51.456;8.844;2022-12-07T15:45:55;9.57;;;5.03;;
23304;SDS011;11821;51.456;8.844;2022-12-07T15:48:22;10.80;;;6.20;;
23304;SDS011;11821;51.456;8.844;2022-12-07T15:50:49;10.45;;;5.72;;
23304;SDS011;11821;51.456;8.844;2022-12-07T15:53:15;11.90;;;5.60;;
23304;SDS011;11821;51.456;8.844;2022-12-07T15:55:42;10.82;;;6.00;;
23304;SDS011;11821;51.456;8.844;2022-12-07T15:58:08;9.50;;;5.72;;
23304;SDS011;11821;51.456;8.844;2022-12-07T16:00:35;12.07;;;6.07;;
23304;SDS011;11821;51.456;8.844;2022-12-07T16:03:01;12.60;;;6.32;;
23304;SDS011;11821;51.456;8.844;2022-12-07T16:05:28;12.43;;;5.95;;
23304;SDS011;11821;51.456;8.844;2022-12-07T16:07:54;13.00;;;5.63;;
23304;SDS011;11821;51.456;8.844;2022-12-07T16:10:21;9.45;;;5.28;;
23304;SDS011;11821;51.456;8.844;2022-12-07T16:12:47;9.80;;;5.63;;
23304;SDS011;11821;51.456;8.844;2022-12-07T16:15:14;8.15;;;5.30;;
23304;SDS011;11821;51.456;8.844;2022-12-07T16:17:41;9.38;;;6.53;;
23304;SDS011;11821;51.456;8.844;2022-12-07T16:20:07;14.20;;;5.45;;
23304;SDS011;11821;51.456;8.844;2022-12-07T16:22:34;9.32;;;6.57;;
23304;SDS011;11821;51.456;8.844;2022-12-07T16:25:04;9.50;;;5.55;;
23304;SDS011;11821;51.456;8.844;2022-12-07T16:27:30;9.73;;;5.22;;
23304;SDS011;11821;51.456;8.844;2022-12-07T16:29:57;9.20;;;5.90;;
23304;SDS011;11821;51.456;8.844;2022-12-07T16:32:23;9.15;;;5.60;;
23304;SDS011;11821;51.456;8.844;2022-12-07T16:34:50;13.73;;;6.43;;
23304;SDS011;11821;51.456;8.844;2022-12-07T16:37:16;11.57;;;7.00;;
23304;SDS011;11821;51.456;8.844;2022-12-07T16:39:43;15.85;;;6.75;;
23304;SDS011;11821;51.456;8.844;2022-12-07T16:42:09;14.10;;;8.02;;
23304;SDS011;11821;51.456;8.844;2022-12-07T16:44:36;14.60;;;7.13;;
23304;SDS011;11821;51.456;8.844;2022-12-07T16:47:03;12.27;;;7.85;;
23304;SDS011;11821;51.456;8.844;2022-12-07T16:49:30;15.93;;;7.65;;
23304;SDS011;11821;51.456;8.844;2022-12-07T16:51:56;14.82;;;6.85;;
23304;SDS011;11821;51.456;8.844;2022-12-07T16:54:23;13.43;;;7.50;;
23304;SDS011;11821;51.456;8.844;2022-12-07T16:56:49;12.02;;;7.03;;